Aromas, California
Current Conditions -  °F | °C
As of 4:40 AM on Saturday 01 Nov 2014 (Local Time) from KWVI Reporting Station
Light Rain Light Rain  
Wind Chill: 55°   Ceiling: 2600
Heat Index: 55°   Visibility: 10mi
Dew Point: 55°   Wind: 0mph
Humidity: 100%   Direction: NA
Pressure: 29.8"   Gusts: NA
Location:  36.88°N, 121.64°W
Report Text: KWVI 011140Z AUTO 00000KT 10SM -RA FEW010 BKN026 OVC070 13/13 A2980 RMK AO2 P0002 T01280128 $
Loading
Personal Weather Stations






























Interactive Weather Map
Tropical Storm Tracking
New forecast layout! Learn more

10-Day Weather Forecast

Advertisements
Track Severe Weather on mobile